sensor_id;sensor_type;location;lat;lon;timestamp;temperature;humidity
36292;DHT22;22327;51.208;6.418;2023-02-16T00:01:57;9.40;94.60
36292;DHT22;22327;51.208;6.418;2023-02-16T00:04:28;9.30;94.50
36292;DHT22;22327;51.208;6.418;2023-02-16T00:06:54;9.40;94.50
36292;DHT22;22327;51.208;6.418;2023-02-16T00:09:21;9.40;94.50
36292;DHT22;22327;51.208;6.418;2023-02-16T00:11:48;9.30;94.50
36292;DHT22;22327;51.208;6.418;2023-02-16T00:14:34;9.30;94.50
36292;DHT22;22327;51.208;6.418;2023-02-16T00:17:01;9.30;94.60
36292;DHT22;22327;51.208;6.418;2023-02-16T00:19:34;9.20;94.60
36292;DHT22;22327;51.208;6.418;2023-02-16T00:22:01;9.30;94.60
36292;DHT22;22327;51.208;6.418;2023-02-16T00:24:28;9.20;94.70
36292;DHT22;22327;51.208;6.418;2023-02-16T00:26:54;9.20;94.70
36292;DHT22;22327;51.208;6.418;2023-02-16T00:29:31;9.20;94.70
36292;DHT22;22327;51.208;6.418;2023-02-16T00:31:58;9.20;94.70
36292;DHT22;22327;51.208;6.418;2023-02-16T00:34:36;9.10;94.70
36292;DHT22;22327;51.208;6.418;2023-02-16T00:37:07;9.10;94.60
36292;DHT22;22327;51.208;6.418;2023-02-16T00:39:34;9.10;94.60
36292;DHT22;22327;51.208;6.418;2023-02-16T00:42:04;9.00;94.60
36292;DHT22;22327;51.208;6.418;2023-02-16T00:44:32;9.10;94.70
36292;DHT22;22327;51.208;6.418;2023-02-16T00:47:13;8.90;94.70
36292;DHT22;22327;51.208;6.418;2023-02-16T00:49:41;8.90;94.90
36292;DHT22;22327;51.208;6.418;2023-02-16T00:52:31;8.90;95.00
36292;DHT22;22327;51.208;6.418;2023-02-16T00:54:58;8.90;95.10
36292;DHT22;22327;51.208;6.418;2023-02-16T00:57:25;8.80;95.00
36292;DHT22;22327;51.208;6.418;2023-02-16T00:59:59;8.80;94.90
36292;DHT22;22327;51.208;6.418;2023-02-16T01:02:25;8.90;94.90
36292;DHT22;22327;51.208;6.418;2023-02-16T01:04:51;9.00;94.80
36292;DHT22;22327;51.208;6.418;2023-02-16T01:07:18;8.90;94.60
36292;DHT22;22327;51.208;6.418;2023-02-16T01:10:03;8.90;94.60
36292;DHT22;22327;51.208;6.418;2023-02-16T01:12:48;8.90;94.70
36292;DHT22;22327;51.208;6.418;2023-02-16T01:15:24;8.90;94.70
36292;DHT22;22327;51.208;6.418;2023-02-16T01:17:50;8.80;94.60
36292;DHT22;22327;51.208;6.418;2023-02-16T01:20:19;8.80;94.60
36292;DHT22;22327;51.208;6.418;2023-02-16T01:22:45;8.80;94.50
36292;DHT22;22327;51.208;6.418;2023-02-16T01:25:11;8.80;94.50
36292;DHT22;22327;51.208;6.418;2023-02-16T01:27:37;8.80;94.50
36292;DHT22;22327;51.208;6.418;2023-02-16T01:30:14;8.80;94.60
36292;DHT22;22327;51.208;6.418;2023-02-16T01:32:41;8.70;94.70
36292;DHT22;22327;51.208;6.418;2023-02-16T01:35:07;8.60;94.80
36292;DHT22;22327;51.208;6.418;2023-02-16T01:37:33;8.60;94.70
36292;DHT22;22327;51.208;6.418;2023-02-16T01:39:58;8.70;94.60
36292;DHT22;22327;51.208;6.418;2023-02-16T01:42:47;8.70;94.50
36292;DHT22;22327;51.208;6.418;2023-02-16T01:45:19;8.70;94.40
36292;DHT22;22327;51.208;6.418;2023-02-16T01:47:52;8.60;94.50
36292;DHT22;22327;51.208;6.418;2023-02-16T01:50:26;8.70;94.50
36292;DHT22;22327;51.208;6.418;2023-02-16T01:53:05;8.60;94.60
36292;DHT22;22327;51.208;6.418;2023-02-16T01:55:40;8.50;94.70
36292;DHT22;22327;51.208;6.418;2023-02-16T01:58:50;8.50;94.60
36292;DHT22;22327;51.208;6.418;2023-02-16T02:01:37;8.60;94.50
36292;DHT22;22327;51.208;6.418;2023-02-16T02:04:21;8.50;94.40
36292;DHT22;22327;51.208;6.418;2023-02-16T02:07:12;8.50;94.50
36292;DHT22;22327;51.208;6.418;2023-02-16T02:09:49;8.40;94.40
36292;DHT22;22327;51.208;6.418;2023-02-16T02:12:31;8.40;94.40
36292;DHT22;22327;51.208;6.418;2023-02-16T02:14:59;8.40;94.50
36292;DHT22;22327;51.208;6.418;2023-02-16T02:17:26;8.30;94.70
36292;DHT22;22327;51.208;6.418;2023-02-16T02:28:52;8.30;94.60
36292;DHT22;22327;51.208;6.418;2023-02-16T02:31:34;8.30;94.60
36292;DHT22;22327;51.208;6.418;2023-02-16T02:37:06;8.10;94.70
36292;DHT22;22327;51.208;6.418;2023-02-16T02:39:51;8.10;94.80
36292;DHT22;22327;51.208;6.418;2023-02-16T02:42:28;8.00;95.00
36292;DHT22;22327;51.208;6.418;2023-02-16T02:45:03;8.00;95.20
36292;DHT22;22327;51.208;6.418;2023-02-16T02:47:46;8.00;95.30
36292;DHT22;22327;51.208;6.418;2023-02-16T02:53:11;8.00;95.30
36292;DHT22;22327;51.208;6.418;2023-02-16T02:55:42;8.00;95.40
36292;DHT22;22327;51.208;6.418;2023-02-16T02:58:31;8.00;95.30
36292;DHT22;22327;51.208;6.418;2023-02-16T03:01:17;8.00;95.30
36292;DHT22;22327;51.208;6.418;2023-02-16T03:03:50;8.00;95.20
36292;DHT22;22327;51.208;6.418;2023-02-16T03:06:26;8.00;95.10
36292;DHT22;22327;51.208;6.418;2023-02-16T03:08:58;8.10;95.20
36292;DHT22;22327;51.208;6.418;2023-02-16T03:11:26;8.10;95.00
36292;DHT22;22327;51.208;6.418;2023-02-16T03:14:18;8.00;95.00
36292;DHT22;22327;51.208;6.418;2023-02-16T03:16:48;8.10;95.10
36292;DHT22;22327;51.208;6.418;2023-02-16T03:19:16;8.00;95.10
36292;DHT22;22327;51.208;6.418;2023-02-16T03:22:02;8.00;95.00
36292;DHT22;22327;51.208;6.418;2023-02-16T03:24:46;8.00;95.10
36292;DHT22;22327;51.208;6.418;2023-02-16T03:27:34;8.00;95.00
36292;DHT22;22327;51.208;6.418;2023-02-16T03:30:21;8.00;95.00
36292;DHT22;22327;51.208;6.418;2023-02-16T03:32:47;8.00;95.00
36292;DHT22;22327;51.208;6.418;2023-02-16T03:35:13;8.00;95.00
36292;DHT22;22327;51.208;6.418;2023-02-16T03:37:41;8.00;95.10
36292;DHT22;22327;51.208;6.418;2023-02-16T03:40:11;8.00;95.10
36292;DHT22;22327;51.208;6.418;2023-02-16T03:42:54;8.00;95.00
36292;DHT22;22327;51.208;6.418;2023-02-16T03:45:20;7.90;95.10
36292;DHT22;22327;51.208;6.418;2023-02-16T03:47:46;8.00;95.10
36292;DHT22;22327;51.208;6.418;2023-02-16T03:50:12;7.90;95.10
36292;DHT22;22327;51.208;6.418;2023-02-16T03:52:38;7.90;95.10
36292;DHT22;22327;51.208;6.418;2023-02-16T03:55:03;7.90;95.00
36292;DHT22;22327;51.208;6.418;2023-02-16T03:57:29;7.90;95.00
36292;DHT22;22327;51.208;6.418;2023-02-16T03:59:54;8.00;95.00
36292;DHT22;22327;51.208;6.418;2023-02-16T04:02:21;8.00;94.90
36292;DHT22;22327;51.208;6.418;2023-02-16T04:04:47;8.00;95.00
36292;DHT22;22327;51.208;6.418;2023-02-16T04:07:12;7.90;95.00
36292;DHT22;22327;51.208;6.418;2023-02-16T04:09:38;8.00;95.00
36292;DHT22;22327;51.208;6.418;2023-02-16T04:12:04;8.00;95.00
36292;DHT22;22327;51.208;6.418;2023-02-16T04:14:48;8.00;94.90
36292;DHT22;22327;51.208;6.418;2023-02-16T04:17:14;8.00;94.90
36292;DHT22;22327;51.208;6.418;2023-02-16T04:19:40;8.00;94.90
36292;DHT22;22327;51.208;6.418;2023-02-16T04:22:05;8.00;94.90
36292;DHT22;22327;51.208;6.418;2023-02-16T04:24:31;7.90;95.00
36292;DHT22;22327;51.208;6.418;2023-02-16T04:26:56;7.90;95.20
36292;DHT22;22327;51.208;6.418;2023-02-16T04:29:22;7.90;95.20
36292;DHT22;22327;51.208;6.418;2023-02-16T04:31:47;8.00;95.50
36292;DHT22;22327;51.208;6.418;2023-02-16T04:34:14;7.90;95.40
36292;DHT22;22327;51.208;6.418;2023-02-16T04:36:39;7.90;95.30
36292;DHT22;22327;51.208;6.418;2023-02-16T04:39:05;7.90;95.60
36292;DHT22;22327;51.208;6.418;2023-02-16T04:41:31;7.90;95.30
36292;DHT22;22327;51.208;6.418;2023-02-16T04:43:56;8.00;95.20
36292;DHT22;22327;51.208;6.418;2023-02-16T04:46:22;8.00;95.10
36292;DHT22;22327;51.208;6.418;2023-02-16T04:48:48;8.00;95.00
36292;DHT22;22327;51.208;6.418;2023-02-16T04:51:13;8.00;94.90
36292;DHT22;22327;51.208;6.418;2023-02-16T04:53:39;8.00;95.00
36292;DHT22;22327;51.208;6.418;2023-02-16T04:56:08;7.90;95.10
36292;DHT22;22327;51.208;6.418;2023-02-16T04:58:34;8.00;95.10
36292;DHT22;22327;51.208;6.418;2023-02-16T05:00:59;7.90;95.10
36292;DHT22;22327;51.208;6.418;2023-02-16T05:03:25;7.90;95.30
36292;DHT22;22327;51.208;6.418;2023-02-16T05:05:50;7.90;95.30
36292;DHT22;22327;51.208;6.418;2023-02-16T05:08:16;7.80;95.40
36292;DHT22;22327;51.208;6.418;2023-02-16T05:10:42;7.80;95.40
36292;DHT22;22327;51.208;6.418;2023-02-16T05:13:09;7.90;95.50
36292;DHT22;22327;51.208;6.418;2023-02-16T05:15:54;7.90;95.30
36292;DHT22;22327;51.208;6.418;2023-02-16T05:18:20;7.80;95.30
36292;DHT22;22327;51.208;6.418;2023-02-16T05:20:45;7.80;95.30
36292;DHT22;22327;51.208;6.418;2023-02-16T05:23:29;7.80;95.10
36292;DHT22;22327;51.208;6.418;2023-02-16T05:25:55;7.80;95.20
36292;DHT22;22327;51.208;6.418;2023-02-16T05:28:20;7.80;95.30
36292;DHT22;22327;51.208;6.418;2023-02-16T05:30:46;7.70;95.30
36292;DHT22;22327;51.208;6.418;2023-02-16T05:33:11;7.80;95.30
36292;DHT22;22327;51.208;6.418;2023-02-16T05:35:37;7.80;95.20
36292;DHT22;22327;51.208;6.418;2023-02-16T05:38:02;7.90;95.20
36292;DHT22;22327;51.208;6.418;2023-02-16T05:40:28;7.80;95.20
36292;DHT22;22327;51.208;6.418;2023-02-16T05:42:54;7.90;95.30
36292;DHT22;22327;51.208;6.418;2023-02-16T05:45:20;7.90;95.20
36292;DHT22;22327;51.208;6.418;2023-02-16T05:47:45;7.90;95.20
36292;DHT22;22327;51.208;6.418;2023-02-16T05:50:11;8.10;95.10
36292;DHT22;22327;51.208;6.418;2023-02-16T05:52:36;8.10;94.90
36292;DHT22;22327;51.208;6.418;2023-02-16T05:55:02;8.10;94.90
36292;DHT22;22327;51.208;6.418;2023-02-16T05:57:28;8.00;94.90
36292;DHT22;22327;51.208;6.418;2023-02-16T05:59:54;8.00;94.90
36292;DHT22;22327;51.208;6.418;2023-02-16T06:02:19;8.00;95.00
36292;DHT22;22327;51.208;6.418;2023-02-16T06:04:45;8.10;94.90
36292;DHT22;22327;51.208;6.418;2023-02-16T06:07:10;8.10;94.90
36292;DHT22;22327;51.208;6.418;2023-02-16T06:09:36;8.10;94.80
36292;DHT22;22327;51.208;6.418;2023-02-16T06:12:01;8.10;94.90
36292;DHT22;22327;51.208;6.418;2023-02-16T06:14:27;8.20;94.90
36292;DHT22;22327;51.208;6.418;2023-02-16T06:16:53;8.20;94.90
36292;DHT22;22327;51.208;6.418;2023-02-16T06:19:20;8.20;94.70
36292;DHT22;22327;51.208;6.418;2023-02-16T06:21:46;8.20;94.50
36292;DHT22;22327;51.208;6.418;2023-02-16T06:24:12;8.20;94.50
36292;DHT22;22327;51.208;6.418;2023-02-16T06:26:39;8.10;94.60
36292;DHT22;22327;51.208;6.418;2023-02-16T06:29:04;8.10;94.50
36292;DHT22;22327;51.208;6.418;2023-02-16T06:31:30;8.10;94.60
36292;DHT22;22327;51.208;6.418;2023-02-16T06:33:55;8.10;94.60
36292;DHT22;22327;51.208;6.418;2023-02-16T06:36:22;8.00;94.80
36292;DHT22;22327;51.208;6.418;2023-02-16T06:38:48;8.10;94.60
36292;DHT22;22327;51.208;6.418;2023-02-16T06:41:14;8.10;94.60
36292;DHT22;22327;51.208;6.418;2023-02-16T06:43:59;8.10;94.70
36292;DHT22;22327;51.208;6.418;2023-02-16T06:46:25;8.00;94.90
36292;DHT22;22327;51.208;6.418;2023-02-16T06:48:51;8.00;95.00
36292;DHT22;22327;51.208;6.418;2023-02-16T06:51:17;8.10;95.10
36292;DHT22;22327;51.208;6.418;2023-02-16T06:53:42;8.10;95.10
36292;DHT22;22327;51.208;6.418;2023-02-16T06:56:08;8.20;95.20
36292;DHT22;22327;51.208;6.418;2023-02-16T06:58:33;8.40;95.00
36292;DHT22;22327;51.208;6.418;2023-02-16T07:00:59;8.50;94.60
36292;DHT22;22327;51.208;6.418;2023-02-16T07:03:25;8.60;94.40
36292;DHT22;22327;51.208;6.418;2023-02-16T07:05:50;8.60;94.40
36292;DHT22;22327;51.208;6.418;2023-02-16T07:08:16;8.70;94.20
36292;DHT22;22327;51.208;6.418;2023-02-16T07:10:43;8.70;94.00
36292;DHT22;22327;51.208;6.418;2023-02-16T07:13:09;8.70;94.10
36292;DHT22;22327;51.208;6.418;2023-02-16T07:15:34;8.80;93.90
36292;DHT22;22327;51.208;6.418;2023-02-16T07:18:00;8.70;93.70
36292;DHT22;22327;51.208;6.418;2023-02-16T07:20:25;8.70;93.80
36292;DHT22;22327;51.208;6.418;2023-02-16T07:22:52;8.80;94.30
36292;DHT22;22327;51.208;6.418;2023-02-16T07:25:18;8.90;93.90
36292;DHT22;22327;51.208;6.418;2023-02-16T07:27:43;8.90;93.70
36292;DHT22;22327;51.208;6.418;2023-02-16T07:30:09;8.90;93.80
36292;DHT22;22327;51.208;6.418;2023-02-16T07:32:36;8.90;93.60
36292;DHT22;22327;51.208;6.418;2023-02-16T07:35:02;8.90;93.60
36292;DHT22;22327;51.208;6.418;2023-02-16T07:37:27;8.90;93.70
36292;DHT22;22327;51.208;6.418;2023-02-16T07:39:53;9.00;93.60
36292;DHT22;22327;51.208;6.418;2023-02-16T07:42:19;9.00;93.70
36292;DHT22;22327;51.208;6.418;2023-02-16T07:44:45;8.90;93.60
36292;DHT22;22327;51.208;6.418;2023-02-16T07:47:11;8.90;93.70
36292;DHT22;22327;51.208;6.418;2023-02-16T07:49:37;9.00;93.60
36292;DHT22;22327;51.208;6.418;2023-02-16T07:52:03;9.00;93.70
36292;DHT22;22327;51.208;6.418;2023-02-16T07:54:30;9.10;93.80
36292;DHT22;22327;51.208;6.418;2023-02-16T07:56:56;9.20;93.70
36292;DHT22;22327;51.208;6.418;2023-02-16T07:59:21;9.30;93.70
36292;DHT22;22327;51.208;6.418;2023-02-16T08:01:47;9.50;93.60
36292;DHT22;22327;51.208;6.418;2023-02-16T08:04:12;9.60;93.30
36292;DHT22;22327;51.208;6.418;2023-02-16T08:06:38;9.70;93.20
36292;DHT22;22327;51.208;6.418;2023-02-16T08:09:04;9.80;92.90
36292;DHT22;22327;51.208;6.418;2023-02-16T08:11:30;9.90;92.70
36292;DHT22;22327;51.208;6.418;2023-02-16T08:13:57;10.00;92.80
36292;DHT22;22327;51.208;6.418;2023-02-16T08:16:25;10.00;92.70
36292;DHT22;22327;51.208;6.418;2023-02-16T08:18:51;10.10;92.60
36292;DHT22;22327;51.208;6.418;2023-02-16T08:21:19;10.30;92.90
36292;DHT22;22327;51.208;6.418;2023-02-16T08:23:55;10.60;92.80
36292;DHT22;22327;51.208;6.418;2023-02-16T08:26:23;10.80;92.20
36292;DHT22;22327;51.208;6.418;2023-02-16T08:28:49;11.00;91.70
36292;DHT22;22327;51.208;6.418;2023-02-16T08:31:18;11.10;91.40
36292;DHT22;22327;51.208;6.418;2023-02-16T08:33:45;11.20;91.50
36292;DHT22;22327;51.208;6.418;2023-02-16T08:36:19;11.30;91.10
36292;DHT22;22327;51.208;6.418;2023-02-16T08:38:46;11.40;91.10
36292;DHT22;22327;51.208;6.418;2023-02-16T08:41:18;11.60;91.00
36292;DHT22;22327;51.208;6.418;2023-02-16T08:43:45;11.80;90.60
36292;DHT22;22327;51.208;6.418;2023-02-16T08:46:11;11.90;90.30
36292;DHT22;22327;51.208;6.418;2023-02-16T08:48:37;12.10;90.10
36292;DHT22;22327;51.208;6.418;2023-02-16T08:51:04;12.00;89.20
36292;DHT22;22327;51.208;6.418;2023-02-16T08:53:34;11.90;89.30
36292;DHT22;22327;51.208;6.418;2023-02-16T08:56:02;11.90;89.60
36292;DHT22;22327;51.208;6.418;2023-02-16T08:58:29;11.90;89.60
36292;DHT22;22327;51.208;6.418;2023-02-16T09:00:55;12.00;89.90
36292;DHT22;22327;51.208;6.418;2023-02-16T09:03:21;12.20;90.00
36292;DHT22;22327;51.208;6.418;2023-02-16T09:05:48;12.30;89.70
36292;DHT22;22327;51.208;6.418;2023-02-16T09:08:14;12.50;89.30
36292;DHT22;22327;51.208;6.418;2023-02-16T09:10:41;12.70;88.80
36292;DHT22;22327;51.208;6.418;2023-02-16T09:13:06;12.80;88.20
36292;DHT22;22327;51.208;6.418;2023-02-16T09:15:35;12.90;88.20
36292;DHT22;22327;51.208;6.418;2023-02-16T09:18:02;13.00;87.60
36292;DHT22;22327;51.208;6.418;2023-02-16T09:20:27;13.10;87.40
36292;DHT22;22327;51.208;6.418;2023-02-16T09:22:53;13.10;86.50
36292;DHT22;22327;51.208;6.418;2023-02-16T09:25:19;13.10;86.40
36292;DHT22;22327;51.208;6.418;2023-02-16T09:27:45;13.20;86.80
36292;DHT22;22327;51.208;6.418;2023-02-16T09:30:11;13.20;86.70
36292;DHT22;22327;51.208;6.418;2023-02-16T09:32:37;13.30;86.90
36292;DHT22;22327;51.208;6.418;2023-02-16T09:35:03;13.30;86.30
36292;DHT22;22327;51.208;6.418;2023-02-16T09:37:29;13.40;86.50
36292;DHT22;22327;51.208;6.418;2023-02-16T09:39:56;13.40;86.10
36292;DHT22;22327;51.208;6.418;2023-02-16T09:42:30;13.50;86.40
36292;DHT22;22327;51.208;6.418;2023-02-16T09:45:08;13.60;86.30
36292;DHT22;22327;51.208;6.418;2023-02-16T09:47:41;13.60;85.90
36292;DHT22;22327;51.208;6.418;2023-02-16T09:50:28;13.70;87.00
36292;DHT22;22327;51.208;6.418;2023-02-16T09:52:56;13.90;85.80
36292;DHT22;22327;51.208;6.418;2023-02-16T09:55:24;13.90;85.60
36292;DHT22;22327;51.208;6.418;2023-02-16T10:03:31;14.10;86.40
36292;DHT22;22327;51.208;6.418;2023-02-16T10:06:23;14.10;85.60
36292;DHT22;22327;51.208;6.418;2023-02-16T10:09:17;14.20;86.50
36292;DHT22;22327;51.208;6.418;2023-02-16T10:11:51;14.20;86.40
36292;DHT22;22327;51.208;6.418;2023-02-16T10:22:06;14.10;87.30
36292;DHT22;22327;51.208;6.418;2023-02-16T10:24:41;14.10;87.80
36292;DHT22;22327;51.208;6.418;2023-02-16T10:27:13;14.10;88.30
36292;DHT22;22327;51.208;6.418;2023-02-16T10:29:40;14.10;88.50
36292;DHT22;22327;51.208;6.418;2023-02-16T10:32:19;14.00;89.50
36292;DHT22;22327;51.208;6.418;2023-02-16T10:43:31;14.10;89.90
36292;DHT22;22327;51.208;6.418;2023-02-16T10:45:59;14.10;89.90
36292;DHT22;22327;51.208;6.418;2023-02-16T10:48:26;14.20;89.80
36292;DHT22;22327;51.208;6.418;2023-02-16T10:51:00;14.30;89.10
36292;DHT22;22327;51.208;6.418;2023-02-16T10:53:38;14.40;89.70
36292;DHT22;22327;51.208;6.418;2023-02-16T10:56:26;14.50;88.90
36292;DHT22;22327;51.208;6.418;2023-02-16T10:58:55;14.60;88.30
36292;DHT22;22327;51.208;6.418;2023-02-16T11:01:34;14.60;88.20
36292;DHT22;22327;51.208;6.418;2023-02-16T11:04:00;14.80;88.50
36292;DHT22;22327;51.208;6.418;2023-02-16T11:06:26;14.80;87.70
36292;DHT22;22327;51.208;6.418;2023-02-16T11:08:57;14.90;88.40
36292;DHT22;22327;51.208;6.418;2023-02-16T11:11:26;15.00;89.00
36292;DHT22;22327;51.208;6.418;2023-02-16T11:14:06;15.00;89.30
36292;DHT22;22327;51.208;6.418;2023-02-16T11:16:33;15.10;89.40
36292;DHT22;22327;51.208;6.418;2023-02-16T11:19:22;15.10;88.90
36292;DHT22;22327;51.208;6.418;2023-02-16T11:21:52;15.20;88.00
36292;DHT22;22327;51.208;6.418;2023-02-16T11:24:35;15.20;88.40
36292;DHT22;22327;51.208;6.418;2023-02-16T11:27:13;15.20;88.60
36292;DHT22;22327;51.208;6.418;2023-02-16T11:29:39;15.10;88.70
36292;DHT22;22327;51.208;6.418;2023-02-16T11:32:10;15.00;88.90
36292;DHT22;22327;51.208;6.418;2023-02-16T11:34:40;14.90;89.00
36292;DHT22;22327;51.208;6.418;2023-02-16T11:37:32;14.70;89.50
36292;DHT22;22327;51.208;6.418;2023-02-16T11:40:26;14.60;90.30
36292;DHT22;22327;51.208;6.418;2023-02-16T11:42:55;14.60;90.40
36292;DHT22;22327;51.208;6.418;2023-02-16T11:45:28;14.70;90.60
36292;DHT22;22327;51.208;6.418;2023-02-16T11:48:23;14.70;90.50
36292;DHT22;22327;51.208;6.418;2023-02-16T11:53:25;14.60;90.40
36292;DHT22;22327;51.208;6.418;2023-02-16T11:56:29;14.70;90.60
36292;DHT22;22327;51.208;6.418;2023-02-16T12:02:00;14.80;90.40
36292;DHT22;22327;51.208;6.418;2023-02-16T12:04:40;14.90;90.30
36292;DHT22;22327;51.208;6.418;2023-02-16T12:07:26;15.00;90.30
36292;DHT22;22327;51.208;6.418;2023-02-16T12:12:32;15.00;89.90
36292;DHT22;22327;51.208;6.418;2023-02-16T12:15:11;14.90;89.60
36292;DHT22;22327;51.208;6.418;2023-02-16T12:18:03;14.70;89.90
36292;DHT22;22327;51.208;6.418;2023-02-16T12:20:54;14.50;90.40
36292;DHT22;22327;51.208;6.418;2023-02-16T12:23:32;14.40;90.70
36292;DHT22;22327;51.208;6.418;2023-02-16T12:26:23;14.40;91.20
36292;DHT22;22327;51.208;6.418;2023-02-16T12:32:17;14.60;90.90
36292;DHT22;22327;51.208;6.418;2023-02-16T12:40:45;14.80;90.70
36292;DHT22;22327;51.208;6.418;2023-02-16T12:45:44;15.00;90.70
36292;DHT22;22327;51.208;6.418;2023-02-16T12:50:55;15.30;90.40
36292;DHT22;22327;51.208;6.418;2023-02-16T12:56:18;15.60;89.30
36292;DHT22;22327;51.208;6.418;2023-02-16T12:58:48;15.70;90.00
36292;DHT22;22327;51.208;6.418;2023-02-16T13:01:21;15.80;88.90
36292;DHT22;22327;51.208;6.418;2023-02-16T13:09:40;15.60;89.20
36292;DHT22;22327;51.208;6.418;2023-02-16T13:15:12;15.70;89.10
36292;DHT22;22327;51.208;6.418;2023-02-16T13:17:42;15.80;89.30
36292;DHT22;22327;51.208;6.418;2023-02-16T13:20:17;15.70;88.80
36292;DHT22;22327;51.208;6.418;2023-02-16T13:28:58;15.60;90.00
36292;DHT22;22327;51.208;6.418;2023-02-16T13:37:00;15.90;89.90
36292;DHT22;22327;51.208;6.418;2023-02-16T13:42:43;16.10;89.20
36292;DHT22;22327;51.208;6.418;2023-02-16T13:45:18;16.10;89.80
36292;DHT22;22327;51.208;6.418;2023-02-16T13:47:44;16.10;89.50
36292;DHT22;22327;51.208;6.418;2023-02-16T13:52:45;16.10;89.30
36292;DHT22;22327;51.208;6.418;2023-02-16T13:55:24;16.10;89.50
36292;DHT22;22327;51.208;6.418;2023-02-16T13:57:59;16.10;89.50
36292;DHT22;22327;51.208;6.418;2023-02-16T14:03:00;16.10;89.80
36292;DHT22;22327;51.208;6.418;2023-02-16T14:05:34;16.00;89.50
36292;DHT22;22327;51.208;6.418;2023-02-16T14:08:11;16.00;89.90
36292;DHT22;22327;51.208;6.418;2023-02-16T14:16:30;16.00;89.70
36292;DHT22;22327;51.208;6.418;2023-02-16T14:18:59;16.00;89.80
36292;DHT22;22327;51.208;6.418;2023-02-16T14:21:38;15.90;89.90
36292;DHT22;22327;51.208;6.418;2023-02-16T14:24:09;15.90;90.00
36292;DHT22;22327;51.208;6.418;2023-02-16T14:26:55;15.80;90.10
36292;DHT22;22327;51.208;6.418;2023-02-16T14:29:30;15.70;90.30
36292;DHT22;22327;51.208;6.418;2023-02-16T14:32:02;15.60;90.50
36292;DHT22;22327;51.208;6.418;2023-02-16T14:34:41;15.50;90.70
36292;DHT22;22327;51.208;6.418;2023-02-16T14:39:46;15.50;91.10
36292;DHT22;22327;51.208;6.418;2023-02-16T14:42:19;15.60;91.20
36292;DHT22;22327;51.208;6.418;2023-02-16T14:47:57;15.60;91.10
36292;DHT22;22327;51.208;6.418;2023-02-16T14:53:53;15.80;91.00
36292;DHT22;22327;51.208;6.418;2023-02-16T14:56:41;15.80;90.80
36292;DHT22;22327;51.208;6.418;2023-02-16T14:59:29;15.80;90.90
36292;DHT22;22327;51.208;6.418;2023-02-16T15:01:57;15.80;90.80
36292;DHT22;22327;51.208;6.418;2023-02-16T15:04:30;15.70;90.90
36292;DHT22;22327;51.208;6.418;2023-02-16T15:06:59;15.70;90.90
36292;DHT22;22327;51.208;6.418;2023-02-16T15:09:30;15.70;91.10
36292;DHT22;22327;51.208;6.418;2023-02-16T15:12:01;15.80;91.00
36292;DHT22;22327;51.208;6.418;2023-02-16T15:14:51;15.80;90.90
36292;DHT22;22327;51.208;6.418;2023-02-16T15:17:27;15.90;90.70
36292;DHT22;22327;51.208;6.418;2023-02-16T15:19:55;15.90;90.60
36292;DHT22;22327;51.208;6.418;2023-02-16T15:22:23;15.90;90.40
36292;DHT22;22327;51.208;6.418;2023-02-16T15:25:10;16.00;90.40
36292;DHT22;22327;51.208;6.418;2023-02-16T15:27:51;16.00;90.40
36292;DHT22;22327;51.208;6.418;2023-02-16T15:30:23;16.00;90.20
36292;DHT22;22327;51.208;6.418;2023-02-16T15:33:13;15.90;90.20
36292;DHT22;22327;51.208;6.418;2023-02-16T15:35:59;15.90;90.10
36292;DHT22;22327;51.208;6.418;2023-02-16T15:41:48;16.00;90.00
36292;DHT22;22327;51.208;6.418;2023-02-16T15:47:05;15.90;89.50
36292;DHT22;22327;51.208;6.418;2023-02-16T15:49:31;16.00;89.50
36292;DHT22;22327;51.208;6.418;2023-02-16T15:51:59;15.90;88.80
36292;DHT22;22327;51.208;6.418;2023-02-16T15:54:30;15.80;88.20
36292;DHT22;22327;51.208;6.418;2023-02-16T15:56:59;15.80;88.40
36292;DHT22;22327;51.208;6.418;2023-02-16T15:59:36;15.80;88.40
36292;DHT22;22327;51.208;6.418;2023-02-16T16:04:40;15.80;88.70
36292;DHT22;22327;51.208;6.418;2023-02-16T16:07:09;15.70;88.60
36292;DHT22;22327;51.208;6.418;2023-02-16T16:09:37;15.70;88.60
36292;DHT22;22327;51.208;6.418;2023-02-16T16:12:05;15.70;88.40
36292;DHT22;22327;51.208;6.418;2023-02-16T16:14:35;15.70;88.50
36292;DHT22;22327;51.208;6.418;2023-02-16T16:17:03;15.70;88.30
36292;DHT22;22327;51.208;6.418;2023-02-16T16:19:36;15.70;88.20
36292;DHT22;22327;51.208;6.418;2023-02-16T16:22:13;15.70;88.30
36292;DHT22;22327;51.208;6.418;2023-02-16T16:24:50;15.60;88.10
36292;DHT22;22327;51.208;6.418;2023-02-16T16:27:27;15.60;88.30
36292;DHT22;22327;51.208;6.418;2023-02-16T16:30:09;15.70;88.10
36292;DHT22;22327;51.208;6.418;2023-02-16T16:32:37;15.70;88.00
36292;DHT22;22327;51.208;6.418;2023-02-16T16:35:33;15.60;88.00
36292;DHT22;22327;51.208;6.418;2023-02-16T16:37:59;15.60;87.80
36292;DHT22;22327;51.208;6.418;2023-02-16T16:40:30;15.60;88.20
36292;DHT22;22327;51.208;6.418;2023-02-16T16:45:38;15.50;87.80
36292;DHT22;22327;51.208;6.418;2023-02-16T16:48:14;15.40;88.00
36292;DHT22;22327;51.208;6.418;2023-02-16T16:50:41;15.40;88.20
36292;DHT22;22327;51.208;6.418;2023-02-16T16:55:54;15.40;87.90
36292;DHT22;22327;51.208;6.418;2023-02-16T16:58:20;15.40;88.20
36292;DHT22;22327;51.208;6.418;2023-02-16T17:00:46;15.40;88.30
36292;DHT22;22327;51.208;6.418;2023-02-16T17:03:16;15.40;88.50
36292;DHT22;22327;51.208;6.418;2023-02-16T17:05:42;15.40;88.40
36292;DHT22;22327;51.208;6.418;2023-02-16T17:08:09;15.30;88.40
36292;DHT22;22327;51.208;6.418;2023-02-16T17:10:37;15.40;88.60
36292;DHT22;22327;51.208;6.418;2023-02-16T17:13:03;15.40;88.50
36292;DHT22;22327;51.208;6.418;2023-02-16T17:18:15;15.30;88.70
36292;DHT22;22327;51.208;6.418;2023-02-16T17:20:42;15.20;89.10
36292;DHT22;22327;51.208;6.418;2023-02-16T17:23:10;15.20;89.10
36292;DHT22;22327;51.208;6.418;2023-02-16T17:25:36;15.20;89.20
36292;DHT22;22327;51.208;6.418;2023-02-16T17:28:02;15.30;89.30
36292;DHT22;22327;51.208;6.418;2023-02-16T17:30:28;15.20;89.40
36292;DHT22;22327;51.208;6.418;2023-02-16T17:32:54;15.20;89.50
36292;DHT22;22327;51.208;6.418;2023-02-16T17:35:20;15.20;90.00
36292;DHT22;22327;51.208;6.418;2023-02-16T17:37:46;15.20;90.00
36292;DHT22;22327;51.208;6.418;2023-02-16T17:40:14;15.20;90.00
36292;DHT22;22327;51.208;6.418;2023-02-16T17:42:41;15.20;90.10
36292;DHT22;22327;51.208;6.418;2023-02-16T17:45:07;15.20;90.10
36292;DHT22;22327;51.208;6.418;2023-02-16T17:47:33;15.20;90.10
36292;DHT22;22327;51.208;6.418;2023-02-16T17:49:59;15.20;90.20
36292;DHT22;22327;51.208;6.418;2023-02-16T17:52:24;15.20;90.30
36292;DHT22;22327;51.208;6.418;2023-02-16T17:54:50;15.20;90.40
36292;DHT22;22327;51.208;6.418;2023-02-16T17:57:16;15.20;90.70
36292;DHT22;22327;51.208;6.418;2023-02-16T17:59:42;15.10;90.80
36292;DHT22;22327;51.208;6.418;2023-02-16T18:02:09;15.10;90.90
36292;DHT22;22327;51.208;6.418;2023-02-16T18:04:36;15.10;91.00